createdAt,value
2022-10-23T16:37:09.821Z,95.27
2022-10-23T16:38:10.807Z,95.47
2022-10-23T16:39:10.805Z,95.72
2022-10-23T16:40:10.787Z,95.61
2022-10-23T16:41:10.777Z,95.41
2022-10-23T16:42:10.828Z,95.61
2022-10-23T16:43:10.760Z,93.70
2022-10-23T16:44:10.763Z,94.51
2022-10-23T16:45:10.735Z,94.10
2022-10-23T16:46:10.707Z,94.81
2022-10-23T16:47:10.748Z,94.60
2022-10-23T16:48:10.700Z,94.51
2022-10-23T16:49:10.705Z,94.25
2022-10-23T16:50:10.667Z,94.45
2022-10-23T16:51:10.672Z,94.25
2022-10-23T16:52:10.663Z,95.06
2022-10-23T16:53:10.640Z,94.25
2022-10-23T16:54:10.653Z,94.25
2022-10-23T16:55:10.691Z,95.15
2022-10-23T16:56:10.624Z,94.75
2022-10-23T16:57:10.602Z,95.10
2022-10-23T16:58:10.606Z,95.20
2022-10-23T16:59:10.617Z,95.30
2022-10-23T17:00:10.564Z,95.40
2022-10-23T17:01:10.701Z,95.66
2022-10-23T17:02:10.729Z,95.56
2022-10-23T17:03:10.547Z,95.56
2022-10-23T17:04:10.550Z,95.06
2022-10-23T17:05:10.539Z,95.46
2022-10-23T17:06:11.373Z,94.15
2022-10-23T17:07:10.573Z,93.85
2022-10-23T17:08:10.494Z,93.99
2022-10-23T17:09:10.506Z,94.39
2022-10-23T17:10:10.462Z,94.65
2022-10-23T17:11:10.460Z,94.05
2022-10-23T17:12:10.442Z,93.95
2022-10-23T17:13:10.448Z,94.15
2022-10-23T17:14:10.428Z,94.05
2022-10-23T17:15:10.441Z,92.54
2022-10-23T17:16:10.413Z,93.24
2022-10-23T17:17:10.398Z,93.44
2022-10-23T17:18:10.390Z,93.04
2022-10-23T17:19:20.636Z,92.63
2022-10-23T17:20:10.379Z,93.14
2022-10-23T17:21:10.412Z,93.74
2022-10-23T17:22:10.372Z,94.15
2022-10-23T17:23:10.553Z,94.45
2022-10-23T17:24:10.352Z,94.55
2022-10-23T17:25:10.330Z,95.15
2022-10-23T17:26:10.300Z,94.95
2022-10-23T17:27:10.295Z,95.06
2022-10-23T17:28:10.292Z,95.15
2022-10-23T17:29:10.340Z,94.95
2022-10-23T17:30:12.630Z,95.56
2022-10-23T17:31:10.254Z,94.25
2022-10-23T17:32:10.419Z,94.65
2022-10-23T17:33:10.232Z,95.15
2022-10-23T17:34:10.254Z,93.85
2022-10-23T17:35:10.222Z,94.09
2022-10-23T17:36:10.200Z,94.70
2022-10-23T17:37:10.238Z,94.80
2022-10-23T17:38:10.207Z,95.00
2022-10-23T17:39:10.203Z,94.70
2022-10-23T17:40:10.168Z,95.30
2022-10-23T17:41:10.155Z,94.80
2022-10-23T17:42:10.394Z,94.49
2022-10-23T17:43:10.141Z,94.70
